Spring City, Tennessee
Current Conditions -  °F | °C
As of 6:53 AM on Saturday 20 Dec 2014 (Local Time) from KCSV Reporting Station
Overcast Overcast  
Wind Chill: 34°   Ceiling: 4700
Heat Index: 34°   Visibility: 7mi
Dew Point: 29°   Wind: 3mph
Humidity: 82%   Direction: 70°ENE
Pressure: 30.17"   Gusts: NA
Location:  35.69°N, 84.86°W
Report Text: KCSV 201153Z AUTO 07003KT 7SM OVC047 01/M02 A3017 RMK AO2 SLP226 60002 70002 T00111017 10017 20011 53010
Loading
Personal Weather Stations






























Interactive Weather Map New forecast layout! Learn more

10-Day Weather Forecast

Advertisements
Track Severe Weather on mobile